sensor_id;sensor_type;location;lat;lon;timestamp;temperature;humidity
13328;DHT22;6733;51.044;3.746;2023-05-14T00:00:50;13.40;99.90
13328;DHT22;6733;51.044;3.746;2023-05-14T00:03:16;13.40;99.90
13328;DHT22;6733;51.044;3.746;2023-05-14T00:05:42;13.40;99.90
13328;DHT22;6733;51.044;3.746;2023-05-14T00:08:08;13.40;99.90
13328;DHT22;6733;51.044;3.746;2023-05-14T00:10:34;13.40;99.90
13328;DHT22;6733;51.044;3.746;2023-05-14T00:13:01;13.40;99.90
13328;DHT22;6733;51.044;3.746;2023-05-14T00:15:27;13.40;99.90
13328;DHT22;6733;51.044;3.746;2023-05-14T00:17:53;13.40;99.90
13328;DHT22;6733;51.044;3.746;2023-05-14T00:20:19;13.40;99.90
13328;DHT22;6733;51.044;3.746;2023-05-14T00:22:45;13.40;99.90
13328;DHT22;6733;51.044;3.746;2023-05-14T00:25:12;13.50;99.90
13328;DHT22;6733;51.044;3.746;2023-05-14T00:27:38;13.50;99.90
13328;DHT22;6733;51.044;3.746;2023-05-14T00:30:04;13.50;99.90
13328;DHT22;6733;51.044;3.746;2023-05-14T00:32:32;13.50;99.90
13328;DHT22;6733;51.044;3.746;2023-05-14T00:34:58;13.50;99.90
13328;DHT22;6733;51.044;3.746;2023-05-14T00:37:24;13.40;99.90
13328;DHT22;6733;51.044;3.746;2023-05-14T00:39:50;13.50;99.90
13328;DHT22;6733;51.044;3.746;2023-05-14T00:42:16;13.50;99.90
13328;DHT22;6733;51.044;3.746;2023-05-14T00:44:43;13.40;99.90
13328;DHT22;6733;51.044;3.746;2023-05-14T00:47:09;13.50;99.90
13328;DHT22;6733;51.044;3.746;2023-05-14T00:49:35;13.40;99.90
13328;DHT22;6733;51.044;3.746;2023-05-14T00:52:04;13.40;99.90
13328;DHT22;6733;51.044;3.746;2023-05-14T00:54:30;13.40;99.90
13328;DHT22;6733;51.044;3.746;2023-05-14T00:56:57;13.50;99.90
13328;DHT22;6733;51.044;3.746;2023-05-14T00:59:24;13.50;99.90
13328;DHT22;6733;51.044;3.746;2023-05-14T01:01:51;13.40;99.90
13328;DHT22;6733;51.044;3.746;2023-05-14T01:04:17;13.50;99.90
13328;DHT22;6733;51.044;3.746;2023-05-14T01:07:11;13.50;99.90
13328;DHT22;6733;51.044;3.746;2023-05-14T01:10:00;13.40;99.90
13328;DHT22;6733;51.044;3.746;2023-05-14T01:12:37;13.50;99.90
13328;DHT22;6733;51.044;3.746;2023-05-14T01:15:23;13.40;99.90
13328;DHT22;6733;51.044;3.746;2023-05-14T01:17:58;13.40;99.90
13328;DHT22;6733;51.044;3.746;2023-05-14T01:20:25;13.50;99.90
13328;DHT22;6733;51.044;3.746;2023-05-14T01:22:52;13.50;99.90
13328;DHT22;6733;51.044;3.746;2023-05-14T01:25:18;13.50;99.90
13328;DHT22;6733;51.044;3.746;2023-05-14T01:31:06;13.50;99.90
13328;DHT22;6733;51.044;3.746;2023-05-14T01:33:34;13.40;99.90
13328;DHT22;6733;51.044;3.746;2023-05-14T01:36:01;13.50;99.90
13328;DHT22;6733;51.044;3.746;2023-05-14T01:38:28;13.50;99.90
13328;DHT22;6733;51.044;3.746;2023-05-14T01:40:56;13.50;99.90
13328;DHT22;6733;51.044;3.746;2023-05-14T01:43:23;13.50;99.90
13328;DHT22;6733;51.044;3.746;2023-05-14T01:45:50;13.40;99.90
13328;DHT22;6733;51.044;3.746;2023-05-14T01:48:16;13.50;99.90
13328;DHT22;6733;51.044;3.746;2023-05-14T01:50:42;13.50;99.90
13328;DHT22;6733;51.044;3.746;2023-05-14T01:53:08;13.60;99.90
13328;DHT22;6733;51.044;3.746;2023-05-14T01:55:34;13.60;99.90
13328;DHT22;6733;51.044;3.746;2023-05-14T01:58:01;13.60;99.90
13328;DHT22;6733;51.044;3.746;2023-05-14T02:00:27;13.50;99.90
13328;DHT22;6733;51.044;3.746;2023-05-14T02:02:53;13.40;99.90
13328;DHT22;6733;51.044;3.746;2023-05-14T02:05:19;13.40;99.90
13328;DHT22;6733;51.044;3.746;2023-05-14T02:07:46;13.30;99.90
13328;DHT22;6733;51.044;3.746;2023-05-14T02:10:12;13.50;99.90
13328;DHT22;6733;51.044;3.746;2023-05-14T02:12:38;13.40;99.90
13328;DHT22;6733;51.044;3.746;2023-05-14T02:15:04;13.40;99.90
13328;DHT22;6733;51.044;3.746;2023-05-14T02:17:31;13.40;99.90
13328;DHT22;6733;51.044;3.746;2023-05-14T02:19:57;13.30;99.90
13328;DHT22;6733;51.044;3.746;2023-05-14T02:22:23;13.40;99.90
13328;DHT22;6733;51.044;3.746;2023-05-14T02:24:49;13.40;99.90
13328;DHT22;6733;51.044;3.746;2023-05-14T02:27:16;13.40;99.90
13328;DHT22;6733;51.044;3.746;2023-05-14T02:29:42;13.40;99.90
13328;DHT22;6733;51.044;3.746;2023-05-14T02:32:08;13.50;99.90
13328;DHT22;6733;51.044;3.746;2023-05-14T02:34:34;13.50;99.90
13328;DHT22;6733;51.044;3.746;2023-05-14T02:37:25;13.40;99.90
13328;DHT22;6733;51.044;3.746;2023-05-14T02:40:16;13.40;99.90
13328;DHT22;6733;51.044;3.746;2023-05-14T02:43:07;13.40;99.90
13328;DHT22;6733;51.044;3.746;2023-05-14T02:45:58;13.40;99.90
13328;DHT22;6733;51.044;3.746;2023-05-14T02:48:49;13.40;99.90
13328;DHT22;6733;51.044;3.746;2023-05-14T02:51:40;13.40;99.90
13328;DHT22;6733;51.044;3.746;2023-05-14T02:54:31;13.40;99.90
13328;DHT22;6733;51.044;3.746;2023-05-14T02:56:57;13.40;99.90
13328;DHT22;6733;51.044;3.746;2023-05-14T02:59:24;13.40;99.90
13328;DHT22;6733;51.044;3.746;2023-05-14T03:01:50;13.40;99.90
13328;DHT22;6733;51.044;3.746;2023-05-14T03:04:19;13.40;99.90
13328;DHT22;6733;51.044;3.746;2023-05-14T03:06:45;13.40;99.90
13328;DHT22;6733;51.044;3.746;2023-05-14T03:09:11;13.40;99.90
13328;DHT22;6733;51.044;3.746;2023-05-14T03:11:37;13.50;99.90
13328;DHT22;6733;51.044;3.746;2023-05-14T03:14:04;13.50;99.90
13328;DHT22;6733;51.044;3.746;2023-05-14T03:16:30;13.50;99.90
13328;DHT22;6733;51.044;3.746;2023-05-14T03:18:56;13.40;99.90
13328;DHT22;6733;51.044;3.746;2023-05-14T03:21:22;13.40;99.90
13328;DHT22;6733;51.044;3.746;2023-05-14T03:23:49;13.40;99.90
13328;DHT22;6733;51.044;3.746;2023-05-14T03:26:15;13.40;99.90
13328;DHT22;6733;51.044;3.746;2023-05-14T03:28:41;13.30;99.90
13328;DHT22;6733;51.044;3.746;2023-05-14T03:31:07;13.30;99.90
13328;DHT22;6733;51.044;3.746;2023-05-14T03:33:33;13.30;99.90
13328;DHT22;6733;51.044;3.746;2023-05-14T03:36:00;13.30;99.90
13328;DHT22;6733;51.044;3.746;2023-05-14T03:38:26;13.20;99.90
13328;DHT22;6733;51.044;3.746;2023-05-14T03:40:52;13.30;99.90
13328;DHT22;6733;51.044;3.746;2023-05-14T03:43:19;13.20;99.90
13328;DHT22;6733;51.044;3.746;2023-05-14T03:45:46;13.30;99.90
13328;DHT22;6733;51.044;3.746;2023-05-14T03:48:13;13.30;99.90
13328;DHT22;6733;51.044;3.746;2023-05-14T03:50:39;13.40;99.90
13328;DHT22;6733;51.044;3.746;2023-05-14T03:53:05;13.30;99.90
13328;DHT22;6733;51.044;3.746;2023-05-14T03:55:32;13.30;99.90
13328;DHT22;6733;51.044;3.746;2023-05-14T03:57:58;13.30;99.90
13328;DHT22;6733;51.044;3.746;2023-05-14T04:00:24;13.30;99.90
13328;DHT22;6733;51.044;3.746;2023-05-14T04:02:50;13.30;99.90
13328;DHT22;6733;51.044;3.746;2023-05-14T04:05:16;13.30;99.90
13328;DHT22;6733;51.044;3.746;2023-05-14T04:07:42;13.20;99.90
13328;DHT22;6733;51.044;3.746;2023-05-14T04:10:11;13.20;99.90
13328;DHT22;6733;51.044;3.746;2023-05-14T04:12:38;13.20;99.90
13328;DHT22;6733;51.044;3.746;2023-05-14T04:15:04;13.20;99.90
13328;DHT22;6733;51.044;3.746;2023-05-14T04:17:31;13.10;99.90
13328;DHT22;6733;51.044;3.746;2023-05-14T04:19:57;13.10;99.90
13328;DHT22;6733;51.044;3.746;2023-05-14T04:22:23;13.20;99.90
13328;DHT22;6733;51.044;3.746;2023-05-14T04:24:49;13.20;99.90
13328;DHT22;6733;51.044;3.746;2023-05-14T04:27:20;13.20;99.90
13328;DHT22;6733;51.044;3.746;2023-05-14T04:29:47;13.20;99.90
13328;DHT22;6733;51.044;3.746;2023-05-14T04:32:13;13.20;99.90
13328;DHT22;6733;51.044;3.746;2023-05-14T04:34:39;13.20;99.90
13328;DHT22;6733;51.044;3.746;2023-05-14T04:37:06;13.20;99.90
13328;DHT22;6733;51.044;3.746;2023-05-14T04:39:32;13.20;99.90
13328;DHT22;6733;51.044;3.746;2023-05-14T04:41:58;13.20;99.90
13328;DHT22;6733;51.044;3.746;2023-05-14T04:44:24;13.20;99.90
13328;DHT22;6733;51.044;3.746;2023-05-14T04:46:51;13.20;99.90
13328;DHT22;6733;51.044;3.746;2023-05-14T04:49:17;13.30;99.90
13328;DHT22;6733;51.044;3.746;2023-05-14T04:51:43;13.20;99.90
13328;DHT22;6733;51.044;3.746;2023-05-14T04:54:09;13.20;99.90
13328;DHT22;6733;51.044;3.746;2023-05-14T04:56:36;13.20;99.90
13328;DHT22;6733;51.044;3.746;2023-05-14T04:59:02;13.20;99.90
13328;DHT22;6733;51.044;3.746;2023-05-14T05:01:28;13.20;99.90
13328;DHT22;6733;51.044;3.746;2023-05-14T05:03:54;13.20;99.90
13328;DHT22;6733;51.044;3.746;2023-05-14T05:06:20;13.30;99.90
13328;DHT22;6733;51.044;3.746;2023-05-14T05:08:46;13.30;99.90
13328;DHT22;6733;51.044;3.746;2023-05-14T05:11:12;13.30;99.90
13328;DHT22;6733;51.044;3.746;2023-05-14T05:13:40;13.30;99.90
13328;DHT22;6733;51.044;3.746;2023-05-14T05:16:06;13.30;99.90
13328;DHT22;6733;51.044;3.746;2023-05-14T05:18:32;13.40;99.90
13328;DHT22;6733;51.044;3.746;2023-05-14T05:20:58;13.40;99.90
13328;DHT22;6733;51.044;3.746;2023-05-14T05:23:24;13.30;99.90
13328;DHT22;6733;51.044;3.746;2023-05-14T05:25:51;13.30;99.90
13328;DHT22;6733;51.044;3.746;2023-05-14T05:28:17;13.40;99.90
13328;DHT22;6733;51.044;3.746;2023-05-14T05:30:43;13.40;99.90
13328;DHT22;6733;51.044;3.746;2023-05-14T05:33:12;13.40;99.90
13328;DHT22;6733;51.044;3.746;2023-05-14T05:35:38;13.40;99.90
13328;DHT22;6733;51.044;3.746;2023-05-14T05:38:04;13.40;99.90
13328;DHT22;6733;51.044;3.746;2023-05-14T05:40:31;13.50;99.90
13328;DHT22;6733;51.044;3.746;2023-05-14T05:42:57;13.60;99.90
13328;DHT22;6733;51.044;3.746;2023-05-14T05:45:23;13.60;99.90
13328;DHT22;6733;51.044;3.746;2023-05-14T05:47:49;13.70;99.90
13328;DHT22;6733;51.044;3.746;2023-05-14T05:50:15;13.80;99.90
13328;DHT22;6733;51.044;3.746;2023-05-14T05:52:42;13.80;99.90
13328;DHT22;6733;51.044;3.746;2023-05-14T05:55:08;13.90;99.90
13328;DHT22;6733;51.044;3.746;2023-05-14T05:57:34;13.90;99.90
13328;DHT22;6733;51.044;3.746;2023-05-14T06:00:01;13.90;99.90
13328;DHT22;6733;51.044;3.746;2023-05-14T06:02:37;14.00;99.90
13328;DHT22;6733;51.044;3.746;2023-05-14T06:05:05;14.10;99.90
13328;DHT22;6733;51.044;3.746;2023-05-14T06:07:31;14.10;99.90
13328;DHT22;6733;51.044;3.746;2023-05-14T06:09:57;14.20;99.90
13328;DHT22;6733;51.044;3.746;2023-05-14T06:12:24;14.00;99.90
13328;DHT22;6733;51.044;3.746;2023-05-14T06:14:50;14.00;99.90
13328;DHT22;6733;51.044;3.746;2023-05-14T06:17:16;13.90;99.90
13328;DHT22;6733;51.044;3.746;2023-05-14T06:19:43;13.80;99.90
13328;DHT22;6733;51.044;3.746;2023-05-14T06:22:09;13.80;99.90
13328;DHT22;6733;51.044;3.746;2023-05-14T06:24:35;13.80;99.90
13328;DHT22;6733;51.044;3.746;2023-05-14T06:27:01;13.90;99.90
13328;DHT22;6733;51.044;3.746;2023-05-14T06:29:27;14.00;99.90
13328;DHT22;6733;51.044;3.746;2023-05-14T06:31:53;14.00;99.90
13328;DHT22;6733;51.044;3.746;2023-05-14T06:34:19;13.90;99.90
13328;DHT22;6733;51.044;3.746;2023-05-14T06:36:46;13.80;99.90
13328;DHT22;6733;51.044;3.746;2023-05-14T06:39:12;13.70;99.90
13328;DHT22;6733;51.044;3.746;2023-05-14T06:41:38;13.60;99.90
13328;DHT22;6733;51.044;3.746;2023-05-14T06:44:04;13.60;99.90
13328;DHT22;6733;51.044;3.746;2023-05-14T06:46:30;13.70;99.90
13328;DHT22;6733;51.044;3.746;2023-05-14T06:48:57;13.70;99.90
13328;DHT22;6733;51.044;3.746;2023-05-14T06:51:23;13.80;99.90
13328;DHT22;6733;51.044;3.746;2023-05-14T06:53:49;13.90;99.90
13328;DHT22;6733;51.044;3.746;2023-05-14T06:56:17;13.90;99.90
13328;DHT22;6733;51.044;3.746;2023-05-14T06:58:43;14.00;99.90
13328;DHT22;6733;51.044;3.746;2023-05-14T07:01:09;14.00;99.90
13328;DHT22;6733;51.044;3.746;2023-05-14T07:03:35;13.70;99.90
13328;DHT22;6733;51.044;3.746;2023-05-14T07:06:01;13.00;99.90
13328;DHT22;6733;51.044;3.746;2023-05-14T07:08:28;12.80;99.90
13328;DHT22;6733;51.044;3.746;2023-05-14T07:10:54;12.80;99.90
13328;DHT22;6733;51.044;3.746;2023-05-14T07:13:21;12.60;99.90
13328;DHT22;6733;51.044;3.746;2023-05-14T07:15:47;12.50;99.90
13328;DHT22;6733;51.044;3.746;2023-05-14T07:18:13;12.50;99.90
13328;DHT22;6733;51.044;3.746;2023-05-14T07:20:39;12.40;99.90
13328;DHT22;6733;51.044;3.746;2023-05-14T07:23:05;12.40;99.90
13328;DHT22;6733;51.044;3.746;2023-05-14T07:25:32;12.40;99.90
13328;DHT22;6733;51.044;3.746;2023-05-14T07:27:58;12.50;99.90
13328;DHT22;6733;51.044;3.746;2023-05-14T07:30:24;12.50;99.90
13328;DHT22;6733;51.044;3.746;2023-05-14T07:32:50;12.50;99.90
13328;DHT22;6733;51.044;3.746;2023-05-14T07:35:16;12.60;99.90
13328;DHT22;6733;51.044;3.746;2023-05-14T07:37:43;12.70;99.90
13328;DHT22;6733;51.044;3.746;2023-05-14T07:40:09;12.70;99.90
13328;DHT22;6733;51.044;3.746;2023-05-14T07:42:35;12.60;99.90
13328;DHT22;6733;51.044;3.746;2023-05-14T07:45:02;12.40;99.90
13328;DHT22;6733;51.044;3.746;2023-05-14T07:47:28;12.40;99.90
13328;DHT22;6733;51.044;3.746;2023-05-14T07:49:56;12.30;99.90
13328;DHT22;6733;51.044;3.746;2023-05-14T07:52:23;12.00;99.90
13328;DHT22;6733;51.044;3.746;2023-05-14T07:54:50;12.00;99.90
13328;DHT22;6733;51.044;3.746;2023-05-14T07:57:17;12.00;99.90
13328;DHT22;6733;51.044;3.746;2023-05-14T07:59:43;12.10;99.90
13328;DHT22;6733;51.044;3.746;2023-05-14T08:02:10;12.30;99.90
13328;DHT22;6733;51.044;3.746;2023-05-14T08:04:38;12.30;99.90
13328;DHT22;6733;51.044;3.746;2023-05-14T08:07:04;12.40;99.90
13328;DHT22;6733;51.044;3.746;2023-05-14T08:09:32;12.60;99.90
13328;DHT22;6733;51.044;3.746;2023-05-14T08:11:58;12.80;99.90
13328;DHT22;6733;51.044;3.746;2023-05-14T08:14:24;13.00;99.90
13328;DHT22;6733;51.044;3.746;2023-05-14T08:16:50;13.00;99.90
13328;DHT22;6733;51.044;3.746;2023-05-14T08:19:18;13.20;99.90
13328;DHT22;6733;51.044;3.746;2023-05-14T08:21:44;13.10;99.90
13328;DHT22;6733;51.044;3.746;2023-05-14T08:24:10;13.10;99.90
13328;DHT22;6733;51.044;3.746;2023-05-14T08:26:36;13.20;99.90
13328;DHT22;6733;51.044;3.746;2023-05-14T08:29:04;13.50;99.90
13328;DHT22;6733;51.044;3.746;2023-05-14T08:31:30;13.70;99.90
13328;DHT22;6733;51.044;3.746;2023-05-14T08:33:56;13.80;99.90
13328;DHT22;6733;51.044;3.746;2023-05-14T08:36:22;13.80;99.90
13328;DHT22;6733;51.044;3.746;2023-05-14T08:38:48;13.90;99.90
13328;DHT22;6733;51.044;3.746;2023-05-14T08:41:15;13.60;99.90
13328;DHT22;6733;51.044;3.746;2023-05-14T08:46:16;14.10;99.90
13328;DHT22;6733;51.044;3.746;2023-05-14T08:48:47;14.10;99.90
13328;DHT22;6733;51.044;3.746;2023-05-14T08:51:15;14.10;99.90
13328;DHT22;6733;51.044;3.746;2023-05-14T08:53:41;14.30;99.90
13328;DHT22;6733;51.044;3.746;2023-05-14T08:56:08;14.60;99.90
13328;DHT22;6733;51.044;3.746;2023-05-14T08:58:35;14.80;99.90
13328;DHT22;6733;51.044;3.746;2023-05-14T09:01:01;14.70;99.90
13328;DHT22;6733;51.044;3.746;2023-05-14T09:03:28;14.80;99.90
13328;DHT22;6733;51.044;3.746;2023-05-14T09:05:55;14.90;99.90
13328;DHT22;6733;51.044;3.746;2023-05-14T09:08:22;15.40;99.90
13328;DHT22;6733;51.044;3.746;2023-05-14T09:10:48;15.70;99.90
13328;DHT22;6733;51.044;3.746;2023-05-14T09:13:14;16.00;99.90
13328;DHT22;6733;51.044;3.746;2023-05-14T09:15:40;15.50;99.90
13328;DHT22;6733;51.044;3.746;2023-05-14T09:18:07;15.40;99.90
13328;DHT22;6733;51.044;3.746;2023-05-14T09:20:33;15.30;99.90
13328;DHT22;6733;51.044;3.746;2023-05-14T09:22:59;15.10;99.90
13328;DHT22;6733;51.044;3.746;2023-05-14T09:25:27;15.00;99.90
13328;DHT22;6733;51.044;3.746;2023-05-14T09:27:56;15.40;99.90
13328;DHT22;6733;51.044;3.746;2023-05-14T09:30:24;15.70;99.90
13328;DHT22;6733;51.044;3.746;2023-05-14T09:32:54;16.50;99.90
13328;DHT22;6733;51.044;3.746;2023-05-14T09:35:22;16.60;99.90
13328;DHT22;6733;51.044;3.746;2023-05-14T09:37:50;17.00;99.90
13328;DHT22;6733;51.044;3.746;2023-05-14T09:40:18;16.90;99.90
13328;DHT22;6733;51.044;3.746;2023-05-14T09:42:46;16.70;99.90
13328;DHT22;6733;51.044;3.746;2023-05-14T09:45:14;16.80;99.90
13328;DHT22;6733;51.044;3.746;2023-05-14T09:47:41;17.10;99.90
13328;DHT22;6733;51.044;3.746;2023-05-14T09:50:08;17.10;99.90
13328;DHT22;6733;51.044;3.746;2023-05-14T09:52:34;17.00;99.90
13328;DHT22;6733;51.044;3.746;2023-05-14T09:55:00;17.00;99.90
13328;DHT22;6733;51.044;3.746;2023-05-14T09:57:27;17.50;99.90
13328;DHT22;6733;51.044;3.746;2023-05-14T09:59:53;17.30;99.90
13328;DHT22;6733;51.044;3.746;2023-05-14T10:02:25;17.50;99.90
13328;DHT22;6733;51.044;3.746;2023-05-14T10:04:53;17.40;99.90
13328;DHT22;6733;51.044;3.746;2023-05-14T10:07:26;17.30;99.90
13328;DHT22;6733;51.044;3.746;2023-05-14T10:10:01;17.00;99.90
13328;DHT22;6733;51.044;3.746;2023-05-14T10:12:32;17.20;99.90
13328;DHT22;6733;51.044;3.746;2023-05-14T10:15:02;17.80;99.90
13328;DHT22;6733;51.044;3.746;2023-05-14T10:17:31;17.70;99.90
13328;DHT22;6733;51.044;3.746;2023-05-14T10:19:59;17.20;99.90
13328;DHT22;6733;51.044;3.746;2023-05-14T10:22:32;17.50;99.90
13328;DHT22;6733;51.044;3.746;2023-05-14T10:24:59;17.80;99.90
13328;DHT22;6733;51.044;3.746;2023-05-14T10:27:26;17.80;99.90
13328;DHT22;6733;51.044;3.746;2023-05-14T10:29:54;18.20;99.90
13328;DHT22;6733;51.044;3.746;2023-05-14T10:32:24;18.10;99.90
13328;DHT22;6733;51.044;3.746;2023-05-14T10:34:52;17.70;99.90
13328;DHT22;6733;51.044;3.746;2023-05-14T10:37:21;18.00;99.90
13328;DHT22;6733;51.044;3.746;2023-05-14T10:40:00;18.10;99.90
13328;DHT22;6733;51.044;3.746;2023-05-14T10:42:31;18.30;99.90
13328;DHT22;6733;51.044;3.746;2023-05-14T10:45:04;18.10;99.90
13328;DHT22;6733;51.044;3.746;2023-05-14T10:47:33;18.40;99.90
13328;DHT22;6733;51.044;3.746;2023-05-14T10:50:03;18.40;99.90
13328;DHT22;6733;51.044;3.746;2023-05-14T10:52:30;19.00;99.90
13328;DHT22;6733;51.044;3.746;2023-05-14T10:54:59;18.80;99.90
13328;DHT22;6733;51.044;3.746;2023-05-14T10:57:27;18.60;99.90
13328;DHT22;6733;51.044;3.746;2023-05-14T10:59:56;18.90;99.90
13328;DHT22;6733;51.044;3.746;2023-05-14T11:02:27;19.10;99.90
13328;DHT22;6733;51.044;3.746;2023-05-14T11:04:59;19.00;99.90
13328;DHT22;6733;51.044;3.746;2023-05-14T11:07:33;19.00;99.90
13328;DHT22;6733;51.044;3.746;2023-05-14T11:10:11;19.30;99.90
13328;DHT22;6733;51.044;3.746;2023-05-14T11:12:40;19.10;99.90
13328;DHT22;6733;51.044;3.746;2023-05-14T11:15:08;19.50;99.90
13328;DHT22;6733;51.044;3.746;2023-05-14T11:17:36;19.30;99.90
13328;DHT22;6733;51.044;3.746;2023-05-14T11:20:02;18.80;99.90
13328;DHT22;6733;51.044;3.746;2023-05-14T11:22:30;18.70;99.90
13328;DHT22;6733;51.044;3.746;2023-05-14T11:24:56;19.00;99.90
13328;DHT22;6733;51.044;3.746;2023-05-14T11:27:23;18.40;99.90
13328;DHT22;6733;51.044;3.746;2023-05-14T11:29:49;18.70;99.90
13328;DHT22;6733;51.044;3.746;2023-05-14T11:32:16;19.00;99.90
13328;DHT22;6733;51.044;3.746;2023-05-14T11:34:43;19.00;99.90
13328;DHT22;6733;51.044;3.746;2023-05-14T11:37:10;19.10;99.90
13328;DHT22;6733;51.044;3.746;2023-05-14T11:39:38;19.50;99.90
13328;DHT22;6733;51.044;3.746;2023-05-14T11:42:09;19.50;99.90
13328;DHT22;6733;51.044;3.746;2023-05-14T11:44:43;20.00;99.90
13328;DHT22;6733;51.044;3.746;2023-05-14T11:47:10;20.10;99.90
13328;DHT22;6733;51.044;3.746;2023-05-14T11:49:36;19.80;99.90
13328;DHT22;6733;51.044;3.746;2023-05-14T11:52:07;19.70;99.90
13328;DHT22;6733;51.044;3.746;2023-05-14T11:54:34;20.20;99.90
13328;DHT22;6733;51.044;3.746;2023-05-14T11:57:07;19.50;99.90
13328;DHT22;6733;51.044;3.746;2023-05-14T11:59:33;20.00;99.90
13328;DHT22;6733;51.044;3.746;2023-05-14T12:02:01;20.30;99.90
13328;DHT22;6733;51.044;3.746;2023-05-14T12:04:27;20.40;99.90
13328;DHT22;6733;51.044;3.746;2023-05-14T12:06:57;20.60;99.90
13328;DHT22;6733;51.044;3.746;2023-05-14T12:09:24;20.80;99.90
13328;DHT22;6733;51.044;3.746;2023-05-14T12:11:50;20.90;99.90
13328;DHT22;6733;51.044;3.746;2023-05-14T12:14:22;21.10;99.90
13328;DHT22;6733;51.044;3.746;2023-05-14T12:16:49;20.60;99.90
13328;DHT22;6733;51.044;3.746;2023-05-14T12:19:17;20.40;99.90
13328;DHT22;6733;51.044;3.746;2023-05-14T12:21:45;20.60;99.90
13328;DHT22;6733;51.044;3.746;2023-05-14T12:24:14;20.40;99.90
13328;DHT22;6733;51.044;3.746;2023-05-14T12:26:47;20.60;99.90
13328;DHT22;6733;51.044;3.746;2023-05-14T12:29:14;20.70;99.90
13328;DHT22;6733;51.044;3.746;2023-05-14T12:31:47;20.30;99.90
13328;DHT22;6733;51.044;3.746;2023-05-14T12:34:14;21.00;99.90
13328;DHT22;6733;51.044;3.746;2023-05-14T12:36:42;21.10;99.90
13328;DHT22;6733;51.044;3.746;2023-05-14T12:39:09;20.60;99.90
13328;DHT22;6733;51.044;3.746;2023-05-14T12:41:35;20.80;99.90
13328;DHT22;6733;51.044;3.746;2023-05-14T12:44:03;20.70;99.90
13328;DHT22;6733;51.044;3.746;2023-05-14T12:46:30;20.80;99.90
13328;DHT22;6733;51.044;3.746;2023-05-14T12:48:57;20.40;99.90
13328;DHT22;6733;51.044;3.746;2023-05-14T12:51:23;20.90;99.90
13328;DHT22;6733;51.044;3.746;2023-05-14T12:53:50;21.00;99.90
13328;DHT22;6733;51.044;3.746;2023-05-14T12:56:18;20.70;99.90
13328;DHT22;6733;51.044;3.746;2023-05-14T12:58:44;20.90;99.90
13328;DHT22;6733;51.044;3.746;2023-05-14T13:01:11;21.00;99.90
13328;DHT22;6733;51.044;3.746;2023-05-14T13:03:37;21.20;99.90
13328;DHT22;6733;51.044;3.746;2023-05-14T13:06:04;21.20;99.90
13328;DHT22;6733;51.044;3.746;2023-05-14T13:08:30;20.50;99.90
13328;DHT22;6733;51.044;3.746;2023-05-14T13:10:56;20.90;99.90
13328;DHT22;6733;51.044;3.746;2023-05-14T13:13:22;21.10;99.90
13328;DHT22;6733;51.044;3.746;2023-05-14T13:15:48;21.20;99.90
13328;DHT22;6733;51.044;3.746;2023-05-14T13:18:16;21.50;99.90
13328;DHT22;6733;51.044;3.746;2023-05-14T13:20:44;21.20;99.90
13328;DHT22;6733;51.044;3.746;2023-05-14T13:23:10;21.20;99.90
13328;DHT22;6733;51.044;3.746;2023-05-14T13:25:36;21.10;99.90
13328;DHT22;6733;51.044;3.746;2023-05-14T13:28:02;21.40;99.90
13328;DHT22;6733;51.044;3.746;2023-05-14T13:30:29;21.60;99.90
13328;DHT22;6733;51.044;3.746;2023-05-14T13:32:58;21.10;99.90
13328;DHT22;6733;51.044;3.746;2023-05-14T13:35:24;21.00;99.90
13328;DHT22;6733;51.044;3.746;2023-05-14T13:37:50;21.30;99.90
13328;DHT22;6733;51.044;3.746;2023-05-14T13:40:16;21.30;99.90
13328;DHT22;6733;51.044;3.746;2023-05-14T13:42:42;21.30;99.90
13328;DHT22;6733;51.044;3.746;2023-05-14T13:45:09;21.00;99.90
13328;DHT22;6733;51.044;3.746;2023-05-14T13:47:36;20.80;99.90
13328;DHT22;6733;51.044;3.746;2023-05-14T13:50:02;20.90;99.90
13328;DHT22;6733;51.044;3.746;2023-05-14T13:52:29;20.30;99.90
13328;DHT22;6733;51.044;3.746;2023-05-14T13:54:55;20.50;99.90
13328;DHT22;6733;51.044;3.746;2023-05-14T13:57:21;20.20;99.90
13328;DHT22;6733;51.044;3.746;2023-05-14T13:59:48;20.20;99.90
13328;DHT22;6733;51.044;3.746;2023-05-14T14:02:14;20.10;99.90
13328;DHT22;6733;51.044;3.746;2023-05-14T14:04:40;20.60;99.90
13328;DHT22;6733;51.044;3.746;2023-05-14T14:07:06;20.30;99.90
13328;DHT22;6733;51.044;3.746;2023-05-14T14:09:33;20.60;99.90
13328;DHT22;6733;51.044;3.746;2023-05-14T14:12:05;20.40;99.90
13328;DHT22;6733;51.044;3.746;2023-05-14T14:14:31;20.40;99.90
13328;DHT22;6733;51.044;3.746;2023-05-14T14:16:57;20.50;99.90
13328;DHT22;6733;51.044;3.746;2023-05-14T14:19:23;20.40;99.90
13328;DHT22;6733;51.044;3.746;2023-05-14T14:21:49;20.40;99.90
13328;DHT22;6733;51.044;3.746;2023-05-14T14:24:15;19.90;99.90
13328;DHT22;6733;51.044;3.746;2023-05-14T14:26:42;20.00;99.90
13328;DHT22;6733;51.044;3.746;2023-05-14T14:29:08;19.60;99.90
13328;DHT22;6733;51.044;3.746;2023-05-14T14:31:35;19.80;99.90
13328;DHT22;6733;51.044;3.746;2023-05-14T14:34:01;19.90;99.90
13328;DHT22;6733;51.044;3.746;2023-05-14T14:36:27;20.00;99.90
13328;DHT22;6733;51.044;3.746;2023-05-14T14:38:55;19.50;99.90
13328;DHT22;6733;51.044;3.746;2023-05-14T14:41:22;19.50;99.90
13328;DHT22;6733;51.044;3.746;2023-05-14T14:43:48;19.80;99.90
13328;DHT22;6733;51.044;3.746;2023-05-14T14:46:14;19.50;99.90
13328;DHT22;6733;51.044;3.746;2023-05-14T14:48:40;19.20;99.90
13328;DHT22;6733;51.044;3.746;2023-05-14T14:51:07;19.50;99.90
13328;DHT22;6733;51.044;3.746;2023-05-14T14:53:34;20.40;99.90
13328;DHT22;6733;51.044;3.746;2023-05-14T14:56:01;19.50;99.90
13328;DHT22;6733;51.044;3.746;2023-05-14T14:58:27;18.90;99.90
13328;DHT22;6733;51.044;3.746;2023-05-14T15:00:55;19.70;99.90
13328;DHT22;6733;51.044;3.746;2023-05-14T15:03:22;19.60;99.90
13328;DHT22;6733;51.044;3.746;2023-05-14T15:05:49;19.40;99.90
13328;DHT22;6733;51.044;3.746;2023-05-14T15:08:16;20.00;99.90
13328;DHT22;6733;51.044;3.746;2023-05-14T15:10:43;20.60;99.90
13328;DHT22;6733;51.044;3.746;2023-05-14T15:13:11;19.90;99.90
13328;DHT22;6733;51.044;3.746;2023-05-14T15:15:37;19.80;99.90
13328;DHT22;6733;51.044;3.746;2023-05-14T15:18:04;19.30;99.90
13328;DHT22;6733;51.044;3.746;2023-05-14T15:20:30;19.10;99.90
13328;DHT22;6733;51.044;3.746;2023-05-14T15:22:56;19.40;99.90
13328;DHT22;6733;51.044;3.746;2023-05-14T15:25:23;19.10;99.90
13328;DHT22;6733;51.044;3.746;2023-05-14T15:27:50;19.40;99.90
13328;DHT22;6733;51.044;3.746;2023-05-14T15:30:16;19.10;99.90
13328;DHT22;6733;51.044;3.746;2023-05-14T15:32:45;18.70;99.90
13328;DHT22;6733;51.044;3.746;2023-05-14T15:35:11;18.90;99.90
13328;DHT22;6733;51.044;3.746;2023-05-14T15:37:42;19.40;99.90
13328;DHT22;6733;51.044;3.746;2023-05-14T15:40:09;19.50;99.90
13328;DHT22;6733;51.044;3.746;2023-05-14T15:42:40;19.70;99.90
13328;DHT22;6733;51.044;3.746;2023-05-14T15:45:08;19.10;99.90
13328;DHT22;6733;51.044;3.746;2023-05-14T15:47:34;19.00;99.90
13328;DHT22;6733;51.044;3.746;2023-05-14T15:50:01;19.40;99.90
13328;DHT22;6733;51.044;3.746;2023-05-14T15:52:27;19.30;99.90